sensor_id;sensor_type;location;lat;lon;timestamp;P1;durP1;ratioP1;P2;durP2;ratioP2
30998;SDS011;20549;50.042;8.968;2022-12-16T00:01:19;12.83;;;9.20;;
30998;SDS011;20549;50.042;8.968;2022-12-16T00:03:46;14.77;;;9.03;;
30998;SDS011;20549;50.042;8.968;2022-12-16T00:06:12;14.70;;;9.17;;
30998;SDS011;20549;50.042;8.968;2022-12-16T00:08:39;13.27;;;8.50;;
30998;SDS011;20549;50.042;8.968;2022-12-16T00:11:05;17.37;;;11.17;;
30998;SDS011;20549;50.042;8.968;2022-12-16T00:13:32;15.07;;;9.60;;
30998;SDS011;20549;50.042;8.968;2022-12-16T00:15:59;13.77;;;9.40;;
30998;SDS011;20549;50.042;8.968;2022-12-16T00:18:25;18.93;;;11.30;;
30998;SDS011;20549;50.042;8.968;2022-12-16T00:20:52;15.77;;;9.80;;
30998;SDS011;20549;50.042;8.968;2022-12-16T00:23:18;14.43;;;9.93;;
30998;SDS011;20549;50.042;8.968;2022-12-16T00:25:45;15.43;;;10.23;;
30998;SDS011;20549;50.042;8.968;2022-12-16T00:28:12;15.97;;;8.93;;
30998;SDS011;20549;50.042;8.968;2022-12-16T00:30:38;13.53;;;9.20;;
30998;SDS011;20549;50.042;8.968;2022-12-16T00:33:04;17.13;;;9.70;;
30998;SDS011;20549;50.042;8.968;2022-12-16T00:35:31;14.63;;;9.27;;
30998;SDS011;20549;50.042;8.968;2022-12-16T00:37:58;15.10;;;9.30;;
30998;SDS011;20549;50.042;8.968;2022-12-16T00:40:24;14.27;;;10.00;;
30998;SDS011;20549;50.042;8.968;2022-12-16T00:42:51;15.03;;;9.73;;
30998;SDS011;20549;50.042;8.968;2022-12-16T00:45:17;14.87;;;10.13;;
30998;SDS011;20549;50.042;8.968;2022-12-16T00:47:44;14.67;;;9.33;;
30998;SDS011;20549;50.042;8.968;2022-12-16T00:50:11;13.17;;;9.53;;
30998;SDS011;20549;50.042;8.968;2022-12-16T00:52:37;16.10;;;9.80;;
30998;SDS011;20549;50.042;8.968;2022-12-16T00:55:04;17.07;;;9.83;;
30998;SDS011;20549;50.042;8.968;2022-12-16T00:57:30;14.60;;;8.93;;
30998;SDS011;20549;50.042;8.968;2022-12-16T00:59:57;15.03;;;9.80;;
30998;SDS011;20549;50.042;8.968;2022-12-16T01:02:23;14.23;;;9.57;;
30998;SDS011;20549;50.042;8.968;2022-12-16T01:04:50;12.07;;;9.23;;
30998;SDS011;20549;50.042;8.968;2022-12-16T01:07:17;13.07;;;9.23;;
30998;SDS011;20549;50.042;8.968;2022-12-16T01:09:43;11.93;;;8.93;;
30998;SDS011;20549;50.042;8.968;2022-12-16T01:12:10;12.90;;;8.37;;
30998;SDS011;20549;50.042;8.968;2022-12-16T01:14:36;12.97;;;8.93;;
30998;SDS011;20549;50.042;8.968;2022-12-16T01:17:03;16.57;;;9.87;;
30998;SDS011;20549;50.042;8.968;2022-12-16T01:19:30;13.70;;;9.67;;
30998;SDS011;20549;50.042;8.968;2022-12-16T01:21:56;13.77;;;9.13;;
30998;SDS011;20549;50.042;8.968;2022-12-16T01:24:23;14.03;;;8.67;;
30998;SDS011;20549;50.042;8.968;2022-12-16T01:26:49;16.03;;;10.07;;
30998;SDS011;20549;50.042;8.968;2022-12-16T01:29:16;13.00;;;8.67;;
30998;SDS011;20549;50.042;8.968;2022-12-16T01:31:43;15.93;;;9.60;;
30998;SDS011;20549;50.042;8.968;2022-12-16T01:34:09;15.73;;;10.03;;
30998;SDS011;20549;50.042;8.968;2022-12-16T01:36:36;14.73;;;9.37;;
30998;SDS011;20549;50.042;8.968;2022-12-16T01:39:02;11.83;;;8.97;;
30998;SDS011;20549;50.042;8.968;2022-12-16T01:41:29;15.70;;;9.03;;
30998;SDS011;20549;50.042;8.968;2022-12-16T01:44:14;15.00;;;9.77;;
30998;SDS011;20549;50.042;8.968;2022-12-16T01:46:37;15.17;;;8.73;;
30998;SDS011;20549;50.042;8.968;2022-12-16T01:49:47;15.43;;;9.00;;
30998;SDS011;20549;50.042;8.968;2022-12-16T01:51:37;15.90;;;9.30;;
30998;SDS011;20549;50.042;8.968;2022-12-16T01:54:07;10.77;;;7.93;;
30998;SDS011;20549;50.042;8.968;2022-12-16T01:56:32;13.83;;;8.70;;
30998;SDS011;20549;50.042;8.968;2022-12-16T01:58:59;13.87;;;8.40;;
30998;SDS011;20549;50.042;8.968;2022-12-16T02:01:25;12.67;;;8.27;;
30998;SDS011;20549;50.042;8.968;2022-12-16T02:03:53;15.07;;;10.13;;
30998;SDS011;20549;50.042;8.968;2022-12-16T02:06:19;15.73;;;9.30;;
30998;SDS011;20549;50.042;8.968;2022-12-16T02:08:45;12.80;;;9.13;;
30998;SDS011;20549;50.042;8.968;2022-12-16T02:11:20;11.43;;;7.93;;
30998;SDS011;20549;50.042;8.968;2022-12-16T02:16:14;13.70;;;9.80;;
30998;SDS011;20549;50.042;8.968;2022-12-16T02:19:14;14.00;;;9.23;;
30998;SDS011;20549;50.042;8.968;2022-12-16T02:24:39;13.63;;;9.27;;
30998;SDS011;20549;50.042;8.968;2022-12-16T02:27:23;13.53;;;9.30;;
30998;SDS011;20549;50.042;8.968;2022-12-16T02:35:26;13.03;;;9.27;;
30998;SDS011;20549;50.042;8.968;2022-12-16T02:41:01;17.23;;;9.03;;
30998;SDS011;20549;50.042;8.968;2022-12-16T02:42:48;12.30;;;9.10;;
30998;SDS011;20549;50.042;8.968;2022-12-16T02:45:16;13.17;;;8.90;;
30998;SDS011;20549;50.042;8.968;2022-12-16T02:47:43;13.60;;;8.93;;
30998;SDS011;20549;50.042;8.968;2022-12-16T02:52:57;10.80;;;8.23;;
30998;SDS011;20549;50.042;8.968;2022-12-16T02:55:26;14.30;;;8.37;;
30998;SDS011;20549;50.042;8.968;2022-12-16T02:57:57;14.83;;;9.33;;
30998;SDS011;20549;50.042;8.968;2022-12-16T03:00:21;13.00;;;8.83;;
30998;SDS011;20549;50.042;8.968;2022-12-16T03:02:48;13.90;;;9.17;;
30998;SDS011;20549;50.042;8.968;2022-12-16T03:05:32;11.73;;;8.73;;
30998;SDS011;20549;50.042;8.968;2022-12-16T03:08:04;12.30;;;8.13;;
30998;SDS011;20549;50.042;8.968;2022-12-16T03:10:36;13.00;;;9.43;;
30998;SDS011;20549;50.042;8.968;2022-12-16T03:12:56;13.83;;;8.70;;
30998;SDS011;20549;50.042;8.968;2022-12-16T03:15:23;13.83;;;8.33;;
30998;SDS011;20549;50.042;8.968;2022-12-16T03:17:49;13.23;;;8.53;;
30998;SDS011;20549;50.042;8.968;2022-12-16T03:20:26;12.37;;;8.87;;
30998;SDS011;20549;50.042;8.968;2022-12-16T03:22:52;15.67;;;9.07;;
30998;SDS011;20549;50.042;8.968;2022-12-16T03:25:18;14.43;;;9.83;;
30998;SDS011;20549;50.042;8.968;2022-12-16T03:30:34;13.67;;;9.53;;
30998;SDS011;20549;50.042;8.968;2022-12-16T03:33:03;12.37;;;8.43;;
30998;SDS011;20549;50.042;8.968;2022-12-16T03:35:33;15.80;;;9.20;;
30998;SDS011;20549;50.042;8.968;2022-12-16T03:37:58;14.90;;;9.13;;
30998;SDS011;20549;50.042;8.968;2022-12-16T03:40:25;13.17;;;8.77;;
30998;SDS011;20549;50.042;8.968;2022-12-16T03:42:52;16.00;;;8.70;;
30998;SDS011;20549;50.042;8.968;2022-12-16T03:45:21;17.73;;;10.50;;
30998;SDS011;20549;50.042;8.968;2022-12-16T03:47:51;20.00;;;9.77;;
30998;SDS011;20549;50.042;8.968;2022-12-16T03:50:21;15.03;;;9.13;;
30998;SDS011;20549;50.042;8.968;2022-12-16T03:52:46;15.97;;;9.77;;
30998;SDS011;20549;50.042;8.968;2022-12-16T03:55:13;16.40;;;9.57;;
30998;SDS011;20549;50.042;8.968;2022-12-16T03:57:39;14.03;;;8.47;;
30998;SDS011;20549;50.042;8.968;2022-12-16T04:00:06;14.03;;;9.57;;
30998;SDS011;20549;50.042;8.968;2022-12-16T04:02:33;14.47;;;8.90;;
30998;SDS011;20549;50.042;8.968;2022-12-16T04:04:59;14.27;;;8.60;;
30998;SDS011;20549;50.042;8.968;2022-12-16T04:07:26;14.87;;;9.13;;
30998;SDS011;20549;50.042;8.968;2022-12-16T04:09:54;13.93;;;9.47;;
30998;SDS011;20549;50.042;8.968;2022-12-16T04:12:20;15.60;;;8.97;;
30998;SDS011;20549;50.042;8.968;2022-12-16T04:15:05;12.37;;;8.20;;
30998;SDS011;20549;50.042;8.968;2022-12-16T04:17:49;11.23;;;7.83;;
30998;SDS011;20549;50.042;8.968;2022-12-16T04:20:31;15.30;;;9.27;;
30998;SDS011;20549;50.042;8.968;2022-12-16T04:23:13;13.80;;;7.97;;
30998;SDS011;20549;50.042;8.968;2022-12-16T04:25:58;13.90;;;9.23;;
30998;SDS011;20549;50.042;8.968;2022-12-16T04:28:24;11.93;;;8.80;;
30998;SDS011;20549;50.042;8.968;2022-12-16T04:30:51;13.33;;;8.83;;
30998;SDS011;20549;50.042;8.968;2022-12-16T04:33:18;12.57;;;8.77;;
30998;SDS011;20549;50.042;8.968;2022-12-16T04:36:02;14.07;;;9.07;;
30998;SDS011;20549;50.042;8.968;2022-12-16T04:38:47;17.33;;;9.80;;
30998;SDS011;20549;50.042;8.968;2022-12-16T04:41:31;13.13;;;8.50;;
30998;SDS011;20549;50.042;8.968;2022-12-16T04:44:16;13.60;;;8.77;;
30998;SDS011;20549;50.042;8.968;2022-12-16T04:47:00;14.10;;;9.17;;
30998;SDS011;20549;50.042;8.968;2022-12-16T04:49:45;15.33;;;9.93;;
30998;SDS011;20549;50.042;8.968;2022-12-16T04:52:30;14.47;;;9.73;;
30998;SDS011;20549;50.042;8.968;2022-12-16T04:55:15;13.67;;;9.37;;
30998;SDS011;20549;50.042;8.968;2022-12-16T04:58:00;13.37;;;8.70;;
30998;SDS011;20549;50.042;8.968;2022-12-16T05:00:45;15.17;;;8.90;;
30998;SDS011;20549;50.042;8.968;2022-12-16T05:03:29;13.33;;;9.03;;
30998;SDS011;20549;50.042;8.968;2022-12-16T05:06:14;14.93;;;9.60;;
30998;SDS011;20549;50.042;8.968;2022-12-16T05:08:59;13.97;;;8.87;;
30998;SDS011;20549;50.042;8.968;2022-12-16T05:11:43;14.23;;;9.90;;
30998;SDS011;20549;50.042;8.968;2022-12-16T05:14:28;13.20;;;8.47;;
30998;SDS011;20549;50.042;8.968;2022-12-16T05:17:12;12.90;;;8.57;;
30998;SDS011;20549;50.042;8.968;2022-12-16T05:19:57;15.70;;;9.73;;
30998;SDS011;20549;50.042;8.968;2022-12-16T05:22:41;13.30;;;9.30;;
30998;SDS011;20549;50.042;8.968;2022-12-16T05:25:26;13.60;;;9.00;;
30998;SDS011;20549;50.042;8.968;2022-12-16T05:28:10;13.83;;;9.47;;
30998;SDS011;20549;50.042;8.968;2022-12-16T05:30:55;15.53;;;9.53;;
30998;SDS011;20549;50.042;8.968;2022-12-16T05:33:40;16.03;;;8.93;;
30998;SDS011;20549;50.042;8.968;2022-12-16T05:36:24;14.73;;;9.50;;
30998;SDS011;20549;50.042;8.968;2022-12-16T05:39:09;15.90;;;9.97;;
30998;SDS011;20549;50.042;8.968;2022-12-16T05:41:54;15.90;;;9.57;;
30998;SDS011;20549;50.042;8.968;2022-12-16T05:44:39;12.83;;;9.23;;
30998;SDS011;20549;50.042;8.968;2022-12-16T05:47:23;13.93;;;9.27;;
30998;SDS011;20549;50.042;8.968;2022-12-16T05:50:08;14.07;;;8.93;;
30998;SDS011;20549;50.042;8.968;2022-12-16T05:52:53;16.17;;;9.37;;
30998;SDS011;20549;50.042;8.968;2022-12-16T05:55:37;16.03;;;9.57;;
30998;SDS011;20549;50.042;8.968;2022-12-16T05:58:22;16.00;;;9.50;;
30998;SDS011;20549;50.042;8.968;2022-12-16T06:01:06;14.67;;;9.27;;
30998;SDS011;20549;50.042;8.968;2022-12-16T06:03:51;14.23;;;9.97;;
30998;SDS011;20549;50.042;8.968;2022-12-16T06:06:26;14.70;;;9.17;;
30998;SDS011;20549;50.042;8.968;2022-12-16T06:09:10;16.83;;;10.00;;
30998;SDS011;20549;50.042;8.968;2022-12-16T06:11:55;15.00;;;9.17;;
30998;SDS011;20549;50.042;8.968;2022-12-16T06:14:40;14.47;;;10.47;;
30998;SDS011;20549;50.042;8.968;2022-12-16T06:17:25;18.33;;;10.50;;
30998;SDS011;20549;50.042;8.968;2022-12-16T06:20:09;19.47;;;10.83;;
30998;SDS011;20549;50.042;8.968;2022-12-16T06:22:54;15.37;;;9.83;;
30998;SDS011;20549;50.042;8.968;2022-12-16T06:25:39;16.07;;;9.73;;
30998;SDS011;20549;50.042;8.968;2022-12-16T06:28:23;14.73;;;9.40;;
30998;SDS011;20549;50.042;8.968;2022-12-16T06:31:08;13.83;;;9.93;;
30998;SDS011;20549;50.042;8.968;2022-12-16T06:33:53;17.80;;;10.13;;
30998;SDS011;20549;50.042;8.968;2022-12-16T06:36:38;17.90;;;9.90;;
30998;SDS011;20549;50.042;8.968;2022-12-16T06:39:23;17.50;;;10.00;;
30998;SDS011;20549;50.042;8.968;2022-12-16T06:42:07;16.47;;;9.97;;
30998;SDS011;20549;50.042;8.968;2022-12-16T06:44:52;15.63;;;10.17;;
30998;SDS011;20549;50.042;8.968;2022-12-16T06:47:37;18.30;;;10.57;;
30998;SDS011;20549;50.042;8.968;2022-12-16T06:50:21;13.80;;;9.97;;
30998;SDS011;20549;50.042;8.968;2022-12-16T06:53:06;17.97;;;10.53;;
30998;SDS011;20549;50.042;8.968;2022-12-16T06:55:51;19.67;;;10.43;;
30998;SDS011;20549;50.042;8.968;2022-12-16T06:58:35;18.90;;;9.93;;
30998;SDS011;20549;50.042;8.968;2022-12-16T07:01:20;16.57;;;11.10;;
30998;SDS011;20549;50.042;8.968;2022-12-16T07:04:05;16.47;;;9.90;;
30998;SDS011;20549;50.042;8.968;2022-12-16T07:06:49;18.57;;;11.97;;
30998;SDS011;20549;50.042;8.968;2022-12-16T07:09:34;15.97;;;9.57;;
30998;SDS011;20549;50.042;8.968;2022-12-16T07:12:19;16.90;;;10.03;;
30998;SDS011;20549;50.042;8.968;2022-12-16T07:15:04;16.83;;;10.67;;
30998;SDS011;20549;50.042;8.968;2022-12-16T07:17:48;20.70;;;13.97;;
30998;SDS011;20549;50.042;8.968;2022-12-16T07:20:33;14.83;;;10.77;;
30998;SDS011;20549;50.042;8.968;2022-12-16T07:23:18;18.50;;;11.23;;
30998;SDS011;20549;50.042;8.968;2022-12-16T07:26:02;16.30;;;11.53;;
30998;SDS011;20549;50.042;8.968;2022-12-16T07:28:47;17.97;;;11.03;;
30998;SDS011;20549;50.042;8.968;2022-12-16T07:31:32;16.63;;;11.17;;
30998;SDS011;20549;50.042;8.968;2022-12-16T07:34:17;17.90;;;11.77;;
30998;SDS011;20549;50.042;8.968;2022-12-16T07:37:01;22.10;;;12.57;;
30998;SDS011;20549;50.042;8.968;2022-12-16T07:39:46;17.80;;;12.50;;
30998;SDS011;20549;50.042;8.968;2022-12-16T07:42:31;28.43;;;13.77;;
30998;SDS011;20549;50.042;8.968;2022-12-16T07:45:15;18.13;;;12.40;;
30998;SDS011;20549;50.042;8.968;2022-12-16T07:48:00;22.03;;;14.00;;
30998;SDS011;20549;50.042;8.968;2022-12-16T07:50:45;25.87;;;13.83;;
30998;SDS011;20549;50.042;8.968;2022-12-16T07:53:29;22.93;;;13.23;;
30998;SDS011;20549;50.042;8.968;2022-12-16T07:56:14;24.87;;;13.80;;
30998;SDS011;20549;50.042;8.968;2022-12-16T07:58:59;26.60;;;14.57;;
30998;SDS011;20549;50.042;8.968;2022-12-16T08:01:44;24.97;;;14.47;;
30998;SDS011;20549;50.042;8.968;2022-12-16T08:04:29;22.77;;;15.03;;
30998;SDS011;20549;50.042;8.968;2022-12-16T08:07:13;19.37;;;13.23;;
30998;SDS011;20549;50.042;8.968;2022-12-16T08:09:58;22.03;;;13.33;;
30998;SDS011;20549;50.042;8.968;2022-12-16T08:12:43;20.83;;;13.20;;
30998;SDS011;20549;50.042;8.968;2022-12-16T08:15:27;23.00;;;14.60;;
30998;SDS011;20549;50.042;8.968;2022-12-16T08:18:12;23.43;;;13.43;;
30998;SDS011;20549;50.042;8.968;2022-12-16T08:20:57;21.87;;;12.60;;
30998;SDS011;20549;50.042;8.968;2022-12-16T08:23:42;19.70;;;12.07;;
30998;SDS011;20549;50.042;8.968;2022-12-16T08:26:26;19.17;;;11.67;;
30998;SDS011;20549;50.042;8.968;2022-12-16T08:29:11;20.07;;;12.77;;
30998;SDS011;20549;50.042;8.968;2022-12-16T08:31:56;17.07;;;11.30;;
30998;SDS011;20549;50.042;8.968;2022-12-16T08:34:41;21.07;;;12.97;;
30998;SDS011;20549;50.042;8.968;2022-12-16T08:37:25;18.07;;;11.77;;
30998;SDS011;20549;50.042;8.968;2022-12-16T08:40:10;20.73;;;13.90;;
30998;SDS011;20549;50.042;8.968;2022-12-16T08:42:55;23.43;;;14.00;;
30998;SDS011;20549;50.042;8.968;2022-12-16T08:45:40;20.53;;;13.63;;
30998;SDS011;20549;50.042;8.968;2022-12-16T08:48:24;22.17;;;14.10;;
30998;SDS011;20549;50.042;8.968;2022-12-16T08:51:09;21.83;;;14.40;;
30998;SDS011;20549;50.042;8.968;2022-12-16T08:53:54;19.70;;;12.37;;
30998;SDS011;20549;50.042;8.968;2022-12-16T08:56:38;21.10;;;14.20;;
30998;SDS011;20549;50.042;8.968;2022-12-16T08:59:23;20.63;;;12.57;;
30998;SDS011;20549;50.042;8.968;2022-12-16T09:02:09;18.00;;;12.53;;
30998;SDS011;20549;50.042;8.968;2022-12-16T09:04:52;15.33;;;11.90;;
30998;SDS011;20549;50.042;8.968;2022-12-16T09:07:37;19.27;;;12.47;;
30998;SDS011;20549;50.042;8.968;2022-12-16T09:10:22;15.83;;;10.20;;
30998;SDS011;20549;50.042;8.968;2022-12-16T09:13:11;16.13;;;11.10;;
30998;SDS011;20549;50.042;8.968;2022-12-16T09:15:54;14.63;;;10.90;;
30998;SDS011;20549;50.042;8.968;2022-12-16T09:18:39;13.00;;;9.80;;
30998;SDS011;20549;50.042;8.968;2022-12-16T09:21:24;16.90;;;11.27;;
30998;SDS011;20549;50.042;8.968;2022-12-16T09:24:08;17.33;;;11.17;;
30998;SDS011;20549;50.042;8.968;2022-12-16T09:26:53;15.20;;;9.93;;
30998;SDS011;20549;50.042;8.968;2022-12-16T09:29:38;13.97;;;9.70;;
30998;SDS011;20549;50.042;8.968;2022-12-16T09:32:22;13.07;;;9.60;;
30998;SDS011;20549;50.042;8.968;2022-12-16T09:35:07;12.50;;;8.33;;
30998;SDS011;20549;50.042;8.968;2022-12-16T09:37:52;11.00;;;8.13;;
30998;SDS011;20549;50.042;8.968;2022-12-16T09:40:37;10.97;;;8.60;;
30998;SDS011;20549;50.042;8.968;2022-12-16T09:46:43;12.07;;;8.00;;
30998;SDS011;20549;50.042;8.968;2022-12-16T09:49:44;11.37;;;8.57;;
30998;SDS011;20549;50.042;8.968;2022-12-16T09:52:31;11.27;;;7.63;;
30998;SDS011;20549;50.042;8.968;2022-12-16T09:55:25;12.63;;;8.23;;
30998;SDS011;20549;50.042;8.968;2022-12-16T09:58:11;14.57;;;8.97;;
30998;SDS011;20549;50.042;8.968;2022-12-16T10:00:56;10.63;;;7.97;;
30998;SDS011;20549;50.042;8.968;2022-12-16T10:03:40;12.30;;;8.07;;
30998;SDS011;20549;50.042;8.968;2022-12-16T10:06:41;10.20;;;7.30;;
30998;SDS011;20549;50.042;8.968;2022-12-16T10:09:34;12.07;;;7.47;;
30998;SDS011;20549;50.042;8.968;2022-12-16T10:15:48;11.43;;;7.40;;
30998;SDS011;20549;50.042;8.968;2022-12-16T10:18:43;12.87;;;7.87;;
30998;SDS011;20549;50.042;8.968;2022-12-16T10:21:36;9.00;;;7.40;;
30998;SDS011;20549;50.042;8.968;2022-12-16T10:27:13;10.40;;;8.30;;
30998;SDS011;20549;50.042;8.968;2022-12-16T10:29:57;11.63;;;7.63;;
30998;SDS011;20549;50.042;8.968;2022-12-16T10:32:45;11.83;;;7.63;;
30998;SDS011;20549;50.042;8.968;2022-12-16T10:35:31;8.90;;;6.80;;
30998;SDS011;20549;50.042;8.968;2022-12-16T10:41:27;9.57;;;7.60;;
30998;SDS011;20549;50.042;8.968;2022-12-16T10:44:51;9.47;;;7.10;;
30998;SDS011;20549;50.042;8.968;2022-12-16T10:47:14;9.73;;;7.67;;
30998;SDS011;20549;50.042;8.968;2022-12-16T10:49:59;9.73;;;7.17;;
30998;SDS011;20549;50.042;8.968;2022-12-16T10:52:57;8.27;;;6.93;;
30998;SDS011;20549;50.042;8.968;2022-12-16T10:55:44;11.43;;;7.43;;
30998;SDS011;20549;50.042;8.968;2022-12-16T10:58:42;7.87;;;6.33;;
30998;SDS011;20549;50.042;8.968;2022-12-16T11:01:20;6.73;;;5.63;;
30998;SDS011;20549;50.042;8.968;2022-12-16T11:04:21;9.33;;;6.77;;
30998;SDS011;20549;50.042;8.968;2022-12-16T11:06:48;9.23;;;7.23;;
30998;SDS011;20549;50.042;8.968;2022-12-16T11:09:33;7.63;;;5.77;;
30998;SDS011;20549;50.042;8.968;2022-12-16T11:12:21;7.77;;;6.37;;
30998;SDS011;20549;50.042;8.968;2022-12-16T11:15:18;8.03;;;6.47;;
30998;SDS011;20549;50.042;8.968;2022-12-16T11:18:04;9.37;;;6.90;;
30998;SDS011;20549;50.042;8.968;2022-12-16T11:21:01;6.50;;;5.83;;
30998;SDS011;20549;50.042;8.968;2022-12-16T11:23:31;8.30;;;6.53;;
30998;SDS011;20549;50.042;8.968;2022-12-16T11:26:16;10.00;;;7.23;;
30998;SDS011;20549;50.042;8.968;2022-12-16T11:29:11;7.57;;;6.20;;
30998;SDS011;20549;50.042;8.968;2022-12-16T11:32:01;8.80;;;6.97;;
30998;SDS011;20549;50.042;8.968;2022-12-16T11:35:03;8.17;;;6.53;;
30998;SDS011;20549;50.042;8.968;2022-12-16T11:37:48;8.07;;;6.73;;
30998;SDS011;20549;50.042;8.968;2022-12-16T11:40:32;9.07;;;6.83;;
30998;SDS011;20549;50.042;8.968;2022-12-16T11:43:17;7.80;;;6.50;;
30998;SDS011;20549;50.042;8.968;2022-12-16T11:46:03;7.83;;;6.00;;
30998;SDS011;20549;50.042;8.968;2022-12-16T11:48:48;7.13;;;5.90;;
30998;SDS011;20549;50.042;8.968;2022-12-16T11:51:19;7.70;;;6.17;;
30998;SDS011;20549;50.042;8.968;2022-12-16T11:54:07;7.50;;;5.97;;
30998;SDS011;20549;50.042;8.968;2022-12-16T11:56:48;9.03;;;6.57;;
30998;SDS011;20549;50.042;8.968;2022-12-16T11:59:52;8.63;;;6.67;;
30998;SDS011;20549;50.042;8.968;2022-12-16T12:02:55;10.63;;;6.50;;
30998;SDS011;20549;50.042;8.968;2022-12-16T12:08:45;6.93;;;5.77;;
30998;SDS011;20549;50.042;8.968;2022-12-16T12:12:01;7.20;;;6.00;;
30998;SDS011;20549;50.042;8.968;2022-12-16T12:17:53;6.40;;;5.63;;
30998;SDS011;20549;50.042;8.968;2022-12-16T12:20:46;8.30;;;5.67;;
30998;SDS011;20549;50.042;8.968;2022-12-16T12:23:48;6.97;;;5.90;;
30998;SDS011;20549;50.042;8.968;2022-12-16T12:30:03;7.70;;;6.00;;
30998;SDS011;20549;50.042;8.968;2022-12-16T12:32:58;5.33;;;4.83;;
30998;SDS011;20549;50.042;8.968;2022-12-16T12:35:52;7.37;;;5.50;;
30998;SDS011;20549;50.042;8.968;2022-12-16T12:38:43;7.13;;;5.93;;
30998;SDS011;20549;50.042;8.968;2022-12-16T12:41:48;8.03;;;6.57;;
30998;SDS011;20549;50.042;8.968;2022-12-16T12:44:52;6.50;;;5.40;;
30998;SDS011;20549;50.042;8.968;2022-12-16T12:47:33;6.63;;;5.83;;
30998;SDS011;20549;50.042;8.968;2022-12-16T12:50:23;7.57;;;5.33;;
30998;SDS011;20549;50.042;8.968;2022-12-16T12:53:25;6.40;;;5.47;;
30998;SDS011;20549;50.042;8.968;2022-12-16T12:57:00;7.63;;;5.10;;
30998;SDS011;20549;50.042;8.968;2022-12-16T12:59:13;6.23;;;5.63;;
30998;SDS011;20549;50.042;8.968;2022-12-16T13:01:55;7.53;;;6.13;;
30998;SDS011;20549;50.042;8.968;2022-12-16T13:04:40;8.07;;;5.50;;
30998;SDS011;20549;50.042;8.968;2022-12-16T13:07:25;8.47;;;6.13;;
30998;SDS011;20549;50.042;8.968;2022-12-16T13:15:58;7.63;;;6.23;;
30998;SDS011;20549;50.042;8.968;2022-12-16T13:18:43;9.83;;;6.40;;
30998;SDS011;20549;50.042;8.968;2022-12-16T13:24:38;8.50;;;5.17;;
30998;SDS011;20549;50.042;8.968;2022-12-16T13:27:22;5.67;;;4.57;;
30998;SDS011;20549;50.042;8.968;2022-12-16T13:32:55;6.23;;;5.17;;
30998;SDS011;20549;50.042;8.968;2022-12-16T13:35:55;5.90;;;5.17;;
30998;SDS011;20549;50.042;8.968;2022-12-16T13:38:45;6.63;;;5.13;;
30998;SDS011;20549;50.042;8.968;2022-12-16T13:47:31;6.03;;;5.43;;
30998;SDS011;20549;50.042;8.968;2022-12-16T13:53:21;6.93;;;5.70;;
30998;SDS011;20549;50.042;8.968;2022-12-16T13:56:06;5.57;;;4.70;;
30998;SDS011;20549;50.042;8.968;2022-12-16T13:58:51;6.00;;;5.07;;
30998;SDS011;20549;50.042;8.968;2022-12-16T14:04:42;6.27;;;5.00;;
30998;SDS011;20549;50.042;8.968;2022-12-16T14:07:26;7.57;;;6.27;;
30998;SDS011;20549;50.042;8.968;2022-12-16T14:10:24;6.80;;;5.30;;
30998;SDS011;20549;50.042;8.968;2022-12-16T14:13:56;6.73;;;5.80;;
30998;SDS011;20549;50.042;8.968;2022-12-16T14:16:12;6.83;;;5.47;;
30998;SDS011;20549;50.042;8.968;2022-12-16T14:25:20;7.87;;;5.87;;
30998;SDS011;20549;50.042;8.968;2022-12-16T14:28:15;6.77;;;5.37;;
30998;SDS011;20549;50.042;8.968;2022-12-16T14:31:01;6.97;;;5.57;;
30998;SDS011;20549;50.042;8.968;2022-12-16T14:33:37;6.40;;;5.27;;
30998;SDS011;20549;50.042;8.968;2022-12-16T14:36:27;8.47;;;5.10;;
30998;SDS011;20549;50.042;8.968;2022-12-16T14:39:30;6.00;;;5.40;;
30998;SDS011;20549;50.042;8.968;2022-12-16T14:42:16;5.30;;;4.77;;
30998;SDS011;20549;50.042;8.968;2022-12-16T14:45:02;6.43;;;5.07;;
30998;SDS011;20549;50.042;8.968;2022-12-16T14:47:46;6.90;;;5.20;;
30998;SDS011;20549;50.042;8.968;2022-12-16T14:50:28;7.03;;;5.73;;
30998;SDS011;20549;50.042;8.968;2022-12-16T14:56:13;6.17;;;5.03;;
30998;SDS011;20549;50.042;8.968;2022-12-16T14:59:13;6.97;;;5.27;;
30998;SDS011;20549;50.042;8.968;2022-12-16T15:01:57;7.93;;;5.70;;
30998;SDS011;20549;50.042;8.968;2022-12-16T15:04:41;6.40;;;5.13;;
30998;SDS011;20549;50.042;8.968;2022-12-16T15:07:26;6.73;;;5.30;;
30998;SDS011;20549;50.042;8.968;2022-12-16T15:10:12;6.70;;;5.40;;
30998;SDS011;20549;50.042;8.968;2022-12-16T15:12:55;6.87;;;5.53;;
30998;SDS011;20549;50.042;8.968;2022-12-16T15:15:46;9.90;;;5.90;;
30998;SDS011;20549;50.042;8.968;2022-12-16T15:18:29;7.53;;;5.73;;
30998;SDS011;20549;50.042;8.968;2022-12-16T15:21:12;6.70;;;5.40;;
30998;SDS011;20549;50.042;8.968;2022-12-16T15:23:56;5.70;;;5.10;;
30998;SDS011;20549;50.042;8.968;2022-12-16T15:26:41;6.03;;;5.43;;
30998;SDS011;20549;50.042;8.968;2022-12-16T15:29:33;6.90;;;5.97;;
30998;SDS011;20549;50.042;8.968;2022-12-16T15:35:11;7.27;;;5.23;;
30998;SDS011;20549;50.042;8.968;2022-12-16T15:38:17;9.60;;;5.80;;
30998;SDS011;20549;50.042;8.968;2022-12-16T15:41:16;7.27;;;5.53;;
30998;SDS011;20549;50.042;8.968;2022-12-16T15:43:58;9.30;;;6.20;;
30998;SDS011;20549;50.042;8.968;2022-12-16T15:46:45;10.27;;;6.43;;
30998;SDS011;20549;50.042;8.968;2022-12-16T15:49:29;7.73;;;6.10;;
30998;SDS011;20549;50.042;8.968;2022-12-16T15:52:22;7.10;;;5.67;;
30998;SDS011;20549;50.042;8.968;2022-12-16T15:58:19;8.30;;;6.10;;
30998;SDS011;20549;50.042;8.968;2022-12-16T16:01:13;7.63;;;6.33;;
30998;SDS011;20549;50.042;8.968;2022-12-16T16:03:56;8.70;;;7.07;;
30998;SDS011;20549;50.042;8.968;2022-12-16T16:06:43;10.17;;;6.73;;
30998;SDS011;20549;50.042;8.968;2022-12-16T16:09:26;9.87;;;7.43;;
30998;SDS011;20549;50.042;8.968;2022-12-16T16:12:11;10.23;;;7.47;;
30998;SDS011;20549;50.042;8.968;2022-12-16T16:14:55;12.43;;;8.47;;
30998;SDS011;20549;50.042;8.968;2022-12-16T16:17:40;10.57;;;7.77;;
30998;SDS011;20549;50.042;8.968;2022-12-16T16:20:24;9.30;;;7.70;;
30998;SDS011;20549;50.042;8.968;2022-12-16T16:23:09;9.63;;;7.03;;
30998;SDS011;20549;50.042;8.968;2022-12-16T16:25:53;11.93;;;7.80;;
30998;SDS011;20549;50.042;8.968;2022-12-16T16:28:38;9.40;;;7.30;;
30998;SDS011;20549;50.042;8.968;2022-12-16T16:31:22;9.80;;;7.77;;
30998;SDS011;20549;50.042;8.968;2022-12-16T16:34:07;9.87;;;6.93;;
30998;SDS011;20549;50.042;8.968;2022-12-16T16:36:53;8.70;;;7.10;;
30998;SDS011;20549;50.042;8.968;2022-12-16T16:39:36;10.20;;;7.60;;
30998;SDS011;20549;50.042;8.968;2022-12-16T16:42:21;10.60;;;8.27;;
30998;SDS011;20549;50.042;8.968;2022-12-16T16:45:06;8.60;;;7.43;;
30998;SDS011;20549;50.042;8.968;2022-12-16T16:47:51;10.50;;;7.90;;
30998;SDS011;20549;50.042;8.968;2022-12-16T16:50:35;12.30;;;7.70;;
30998;SDS011;20549;50.042;8.968;2022-12-16T16:53:19;10.37;;;7.83;;
30998;SDS011;20549;50.042;8.968;2022-12-16T16:56:04;10.30;;;7.70;;
30998;SDS011;20549;50.042;8.968;2022-12-16T16:58:49;10.37;;;8.20;;
30998;SDS011;20549;50.042;8.968;2022-12-16T17:01:33;10.43;;;7.60;;
30998;SDS011;20549;50.042;8.968;2022-12-16T17:04:19;8.73;;;7.57;;
30998;SDS011;20549;50.042;8.968;2022-12-16T17:07:03;12.37;;;9.13;;
30998;SDS011;20549;50.042;8.968;2022-12-16T17:09:48;10.97;;;8.60;;
30998;SDS011;20549;50.042;8.968;2022-12-16T17:12:32;10.00;;;7.83;;
30998;SDS011;20549;50.042;8.968;2022-12-16T17:15:22;11.10;;;8.87;;
30998;SDS011;20549;50.042;8.968;2022-12-16T17:18:05;13.87;;;8.73;;
30998;SDS011;20549;50.042;8.968;2022-12-16T17:20:49;12.00;;;8.53;;